sensor_id;sensor_type;location;lat;lon;timestamp;P1;durP1;ratioP1;P2;durP2;ratioP2
44197;SDS011;30157;55.512;37.764;2022-08-25T00:01:46;8.65;;;5.40;;
44197;SDS011;30157;55.512;37.764;2022-08-25T00:04:21;9.75;;;5.40;;
44197;SDS011;30157;55.512;37.764;2022-08-25T00:06:47;9.20;;;5.43;;
44197;SDS011;30157;55.512;37.764;2022-08-25T00:09:15;10.02;;;5.28;;
44197;SDS011;30157;55.512;37.764;2022-08-25T00:11:43;8.95;;;5.50;;
44197;SDS011;30157;55.512;37.764;2022-08-25T00:14:12;9.13;;;5.20;;
44197;SDS011;30157;55.512;37.764;2022-08-25T00:16:41;8.60;;;5.60;;
44197;SDS011;30157;55.512;37.764;2022-08-25T00:19:09;8.13;;;5.40;;
44197;SDS011;30157;55.512;37.764;2022-08-25T00:21:37;6.00;;;4.80;;
44197;SDS011;30157;55.512;37.764;2022-08-25T00:24:05;9.40;;;5.00;;
44197;SDS011;30157;55.512;37.764;2022-08-25T00:26:33;10.68;;;5.10;;
44197;SDS011;30157;55.512;37.764;2022-08-25T00:29:02;8.70;;;5.07;;
44197;SDS011;30157;55.512;37.764;2022-08-25T00:31:27;6.97;;;4.72;;
44197;SDS011;30157;55.512;37.764;2022-08-25T00:33:53;8.25;;;5.57;;
44197;SDS011;30157;55.512;37.764;2022-08-25T00:36:19;8.30;;;5.40;;
44197;SDS011;30157;55.512;37.764;2022-08-25T00:38:46;11.38;;;5.43;;
44197;SDS011;30157;55.512;37.764;2022-08-25T00:41:15;7.32;;;5.10;;
44197;SDS011;30157;55.512;37.764;2022-08-25T00:46:23;12.88;;;5.07;;
44197;SDS011;30157;55.512;37.764;2022-08-25T00:48:53;8.38;;;5.43;;
44197;SDS011;30157;55.512;37.764;2022-08-25T00:51:31;8.07;;;5.50;;
44197;SDS011;30157;55.512;37.764;2022-08-25T00:54:01;8.88;;;5.03;;
44197;SDS011;30157;55.512;37.764;2022-08-25T00:56:29;6.32;;;5.28;;
44197;SDS011;30157;55.512;37.764;2022-08-25T00:58:56;7.40;;;4.60;;
44197;SDS011;30157;55.512;37.764;2022-08-25T01:01:24;9.60;;;5.38;;
44197;SDS011;30157;55.512;37.764;2022-08-25T01:03:50;9.80;;;5.07;;
44197;SDS011;30157;55.512;37.764;2022-08-25T01:06:16;6.70;;;5.07;;
44197;SDS011;30157;55.512;37.764;2022-08-25T01:08:42;7.60;;;5.50;;
44197;SDS011;30157;55.512;37.764;2022-08-25T01:11:08;7.63;;;5.10;;
44197;SDS011;30157;55.512;37.764;2022-08-25T01:13:42;5.80;;;4.60;;
44197;SDS011;30157;55.512;37.764;2022-08-25T01:16:10;8.00;;;4.60;;
44197;SDS011;30157;55.512;37.764;2022-08-25T01:18:46;7.95;;;4.70;;
44197;SDS011;30157;55.512;37.764;2022-08-25T01:21:21;7.43;;;5.10;;
44197;SDS011;30157;55.512;37.764;2022-08-25T01:23:49;8.18;;;5.28;;
44197;SDS011;30157;55.512;37.764;2022-08-25T01:28:47;7.05;;;5.43;;
44197;SDS011;30157;55.512;37.764;2022-08-25T01:31:33;7.85;;;5.22;;
44197;SDS011;30157;55.512;37.764;2022-08-25T01:34:01;8.15;;;5.47;;
44197;SDS011;30157;55.512;37.764;2022-08-25T01:36:29;9.15;;;5.40;;
44197;SDS011;30157;55.512;37.764;2022-08-25T01:38:55;7.15;;;5.00;;
44197;SDS011;30157;55.512;37.764;2022-08-25T01:43:54;8.65;;;4.82;;
44197;SDS011;30157;55.512;37.764;2022-08-25T01:46:20;10.73;;;5.50;;
44197;SDS011;30157;55.512;37.764;2022-08-25T01:48:46;8.82;;;5.05;;
44197;SDS011;30157;55.512;37.764;2022-08-25T01:51:15;7.85;;;5.20;;
44197;SDS011;30157;55.512;37.764;2022-08-25T01:53:45;7.68;;;5.60;;
44197;SDS011;30157;55.512;37.764;2022-08-25T01:56:13;7.20;;;5.40;;
44197;SDS011;30157;55.512;37.764;2022-08-25T01:58:41;9.07;;;5.18;;
44197;SDS011;30157;55.512;37.764;2022-08-25T02:01:12;9.13;;;5.13;;
44197;SDS011;30157;55.512;37.764;2022-08-25T02:03:43;7.30;;;5.10;;
44197;SDS011;30157;55.512;37.764;2022-08-25T02:06:13;8.60;;;4.65;;
44197;SDS011;30157;55.512;37.764;2022-08-25T02:08:41;11.55;;;8.98;;
44197;SDS011;30157;55.512;37.764;2022-08-25T02:11:11;33.72;;;29.60;;
44197;SDS011;30157;55.512;37.764;2022-08-25T02:13:41;57.15;;;49.78;;
44197;SDS011;30157;55.512;37.764;2022-08-25T02:16:07;35.97;;;28.92;;
44197;SDS011;30157;55.512;37.764;2022-08-25T02:18:34;16.13;;;10.50;;
44197;SDS011;30157;55.512;37.764;2022-08-25T02:21:01;12.75;;;10.25;;
44197;SDS011;30157;55.512;37.764;2022-08-25T02:23:27;13.35;;;7.97;;
44197;SDS011;30157;55.512;37.764;2022-08-25T02:25:52;8.57;;;6.15;;
44197;SDS011;30157;55.512;37.764;2022-08-25T02:28:18;8.73;;;5.78;;
44197;SDS011;30157;55.512;37.764;2022-08-25T02:30:44;8.73;;;5.22;;
44197;SDS011;30157;55.512;37.764;2022-08-25T02:33:12;9.05;;;5.40;;
44197;SDS011;30157;55.512;37.764;2022-08-25T02:35:38;10.25;;;5.40;;
44197;SDS011;30157;55.512;37.764;2022-08-25T02:38:04;7.05;;;5.28;;
44197;SDS011;30157;55.512;37.764;2022-08-25T02:40:29;6.90;;;5.07;;
44197;SDS011;30157;55.512;37.764;2022-08-25T02:42:55;8.15;;;5.13;;
44197;SDS011;30157;55.512;37.764;2022-08-25T02:45:21;6.97;;;5.13;;
44197;SDS011;30157;55.512;37.764;2022-08-25T02:47:47;7.40;;;5.15;;
44197;SDS011;30157;55.512;37.764;2022-08-25T02:50:13;9.27;;;5.30;;
44197;SDS011;30157;55.512;37.764;2022-08-25T02:52:39;8.02;;;5.78;;
44197;SDS011;30157;55.512;37.764;2022-08-25T02:55:06;8.85;;;5.80;;
44197;SDS011;30157;55.512;37.764;2022-08-25T02:57:35;8.57;;;5.40;;
44197;SDS011;30157;55.512;37.764;2022-08-25T03:00:02;7.72;;;5.45;;
44197;SDS011;30157;55.512;37.764;2022-08-25T03:02:30;11.25;;;6.50;;
44197;SDS011;30157;55.512;37.764;2022-08-25T03:04:56;10.60;;;6.00;;
44197;SDS011;30157;55.512;37.764;2022-08-25T03:07:21;9.43;;;5.65;;
44197;SDS011;30157;55.512;37.764;2022-08-25T03:09:47;6.40;;;5.30;;
44197;SDS011;30157;55.512;37.764;2022-08-25T03:12:13;7.68;;;5.35;;
44197;SDS011;30157;55.512;37.764;2022-08-25T03:14:39;7.53;;;5.45;;
44197;SDS011;30157;55.512;37.764;2022-08-25T03:17:05;7.68;;;5.43;;
44197;SDS011;30157;55.512;37.764;2022-08-25T03:19:31;11.25;;;6.85;;
44197;SDS011;30157;55.512;37.764;2022-08-25T03:21:57;8.82;;;5.93;;
44197;SDS011;30157;55.512;37.764;2022-08-25T03:24:24;8.70;;;5.57;;
44197;SDS011;30157;55.512;37.764;2022-08-25T03:26:50;5.75;;;4.95;;
44197;SDS011;30157;55.512;37.764;2022-08-25T03:29:21;10.82;;;6.55;;
44197;SDS011;30157;55.512;37.764;2022-08-25T03:31:51;7.40;;;5.60;;
44197;SDS011;30157;55.512;37.764;2022-08-25T03:34:19;7.60;;;5.45;;
44197;SDS011;30157;55.512;37.764;2022-08-25T03:36:48;7.65;;;5.20;;
44197;SDS011;30157;55.512;37.764;2022-08-25T03:39:17;7.82;;;5.13;;
44197;SDS011;30157;55.512;37.764;2022-08-25T03:41:45;6.63;;;5.47;;
44197;SDS011;30157;55.512;37.764;2022-08-25T03:44:11;8.07;;;5.75;;
44197;SDS011;30157;55.512;37.764;2022-08-25T03:46:40;8.43;;;5.60;;
44197;SDS011;30157;55.512;37.764;2022-08-25T03:49:11;8.32;;;5.65;;
44197;SDS011;30157;55.512;37.764;2022-08-25T03:51:40;8.60;;;5.80;;
44197;SDS011;30157;55.512;37.764;2022-08-25T03:54:14;8.55;;;5.72;;
44197;SDS011;30157;55.512;37.764;2022-08-25T03:56:41;7.57;;;5.45;;
44197;SDS011;30157;55.512;37.764;2022-08-25T03:59:07;6.53;;;4.82;;
44197;SDS011;30157;55.512;37.764;2022-08-25T04:01:35;6.63;;;5.40;;
44197;SDS011;30157;55.512;37.764;2022-08-25T04:04:05;8.27;;;5.50;;
44197;SDS011;30157;55.512;37.764;2022-08-25T04:06:33;6.25;;;5.60;;
44197;SDS011;30157;55.512;37.764;2022-08-25T04:08:59;7.28;;;5.70;;
44197;SDS011;30157;55.512;37.764;2022-08-25T04:11:25;11.02;;;6.55;;
44197;SDS011;30157;55.512;37.764;2022-08-25T04:13:52;9.93;;;6.47;;
44197;SDS011;30157;55.512;37.764;2022-08-25T04:16:22;8.50;;;6.10;;
44197;SDS011;30157;55.512;37.764;2022-08-25T04:18:50;10.90;;;7.10;;
44197;SDS011;30157;55.512;37.764;2022-08-25T04:21:18;8.95;;;6.00;;
44197;SDS011;30157;55.512;37.764;2022-08-25T04:23:45;10.15;;;6.10;;
44197;SDS011;30157;55.512;37.764;2022-08-25T04:26:18;8.27;;;5.90;;
44197;SDS011;30157;55.512;37.764;2022-08-25T04:28:49;10.32;;;6.03;;
44197;SDS011;30157;55.512;37.764;2022-08-25T04:31:16;9.68;;;6.35;;
44197;SDS011;30157;55.512;37.764;2022-08-25T04:33:43;12.95;;;6.60;;
44197;SDS011;30157;55.512;37.764;2022-08-25T04:36:12;11.05;;;6.88;;
44197;SDS011;30157;55.512;37.764;2022-08-25T04:38:39;11.25;;;6.43;;
44197;SDS011;30157;55.512;37.764;2022-08-25T04:41:06;11.05;;;6.40;;
44197;SDS011;30157;55.512;37.764;2022-08-25T04:43:34;8.85;;;6.40;;
44197;SDS011;30157;55.512;37.764;2022-08-25T04:46:08;11.30;;;6.90;;
44197;SDS011;30157;55.512;37.764;2022-08-25T04:48:36;10.82;;;6.78;;
44197;SDS011;30157;55.512;37.764;2022-08-25T04:51:04;10.10;;;6.80;;
44197;SDS011;30157;55.512;37.764;2022-08-25T04:53:32;11.75;;;6.70;;
44197;SDS011;30157;55.512;37.764;2022-08-25T04:55:58;9.57;;;6.85;;
44197;SDS011;30157;55.512;37.764;2022-08-25T04:58:24;9.20;;;6.70;;
44197;SDS011;30157;55.512;37.764;2022-08-25T05:00:51;11.38;;;6.90;;
44197;SDS011;30157;55.512;37.764;2022-08-25T05:03:17;12.02;;;7.25;;
44197;SDS011;30157;55.512;37.764;2022-08-25T05:05:43;14.23;;;7.20;;
44197;SDS011;30157;55.512;37.764;2022-08-25T05:08:09;10.55;;;7.47;;
44197;SDS011;30157;55.512;37.764;2022-08-25T05:10:37;10.75;;;7.15;;
44197;SDS011;30157;55.512;37.764;2022-08-25T05:13:04;11.20;;;7.15;;
44197;SDS011;30157;55.512;37.764;2022-08-25T05:15:30;10.95;;;6.93;;
44197;SDS011;30157;55.512;37.764;2022-08-25T05:18:17;9.35;;;6.82;;
44197;SDS011;30157;55.512;37.764;2022-08-25T05:20:44;11.18;;;7.40;;
44197;SDS011;30157;55.512;37.764;2022-08-25T05:23:10;14.63;;;7.53;;
44197;SDS011;30157;55.512;37.764;2022-08-25T05:25:36;10.90;;;7.20;;
44197;SDS011;30157;55.512;37.764;2022-08-25T05:28:02;9.55;;;7.35;;
44197;SDS011;30157;55.512;37.764;2022-08-25T05:30:27;12.48;;;7.30;;
44197;SDS011;30157;55.512;37.764;2022-08-25T05:32:53;12.50;;;7.50;;
44197;SDS011;30157;55.512;37.764;2022-08-25T05:35:19;11.68;;;7.53;;
44197;SDS011;30157;55.512;37.764;2022-08-25T05:37:45;10.30;;;7.43;;
44197;SDS011;30157;55.512;37.764;2022-08-25T05:40:11;10.10;;;8.00;;
44197;SDS011;30157;55.512;37.764;2022-08-25T05:42:37;12.10;;;7.68;;
44197;SDS011;30157;55.512;37.764;2022-08-25T05:45:03;10.13;;;7.45;;
44197;SDS011;30157;55.512;37.764;2022-08-25T05:47:30;9.90;;;7.40;;
44197;SDS011;30157;55.512;37.764;2022-08-25T05:49:56;12.48;;;7.70;;
44197;SDS011;30157;55.512;37.764;2022-08-25T05:52:21;12.70;;;8.07;;
44197;SDS011;30157;55.512;37.764;2022-08-25T05:54:47;12.05;;;7.70;;
44197;SDS011;30157;55.512;37.764;2022-08-25T05:57:13;11.35;;;7.30;;
44197;SDS011;30157;55.512;37.764;2022-08-25T05:59:39;13.00;;;8.05;;
44197;SDS011;30157;55.512;37.764;2022-08-25T06:02:04;13.00;;;7.63;;
44197;SDS011;30157;55.512;37.764;2022-08-25T06:04:56;9.85;;;7.20;;
44197;SDS011;30157;55.512;37.764;2022-08-25T06:07:24;10.88;;;6.88;;
44197;SDS011;30157;55.512;37.764;2022-08-25T06:09:53;11.52;;;7.45;;
44197;SDS011;30157;55.512;37.764;2022-08-25T06:12:18;10.40;;;7.53;;
44197;SDS011;30157;55.512;37.764;2022-08-25T06:14:46;12.45;;;7.85;;
44197;SDS011;30157;55.512;37.764;2022-08-25T06:17:14;13.25;;;7.78;;
44197;SDS011;30157;55.512;37.764;2022-08-25T06:19:41;9.40;;;7.00;;
44197;SDS011;30157;55.512;37.764;2022-08-25T06:22:08;11.27;;;7.20;;
44197;SDS011;30157;55.512;37.764;2022-08-25T06:24:34;11.45;;;7.60;;
44197;SDS011;30157;55.512;37.764;2022-08-25T06:27:00;11.77;;;7.25;;
44197;SDS011;30157;55.512;37.764;2022-08-25T06:29:26;13.25;;;7.50;;
44197;SDS011;30157;55.512;37.764;2022-08-25T06:31:54;13.23;;;7.80;;
44197;SDS011;30157;55.512;37.764;2022-08-25T06:34:20;9.95;;;7.55;;
44197;SDS011;30157;55.512;37.764;2022-08-25T06:36:46;10.25;;;7.32;;
44197;SDS011;30157;55.512;37.764;2022-08-25T06:39:12;9.88;;;7.10;;
44197;SDS011;30157;55.512;37.764;2022-08-25T06:41:40;10.85;;;7.03;;
44197;SDS011;30157;55.512;37.764;2022-08-25T06:44:06;11.48;;;7.28;;
44197;SDS011;30157;55.512;37.764;2022-08-25T06:46:32;11.60;;;7.22;;
44197;SDS011;30157;55.512;37.764;2022-08-25T06:49:00;14.00;;;7.57;;
44197;SDS011;30157;55.512;37.764;2022-08-25T06:51:26;9.43;;;7.40;;
44197;SDS011;30157;55.512;37.764;2022-08-25T06:53:54;11.32;;;7.53;;
44197;SDS011;30157;55.512;37.764;2022-08-25T06:56:22;11.07;;;7.20;;
44197;SDS011;30157;55.512;37.764;2022-08-25T06:58:48;11.93;;;7.20;;
44197;SDS011;30157;55.512;37.764;2022-08-25T07:01:15;10.68;;;6.47;;
44197;SDS011;30157;55.512;37.764;2022-08-25T07:03:50;11.60;;;6.97;;
44197;SDS011;30157;55.512;37.764;2022-08-25T07:06:19;11.10;;;6.90;;
44197;SDS011;30157;55.512;37.764;2022-08-25T07:08:45;11.02;;;6.45;;
44197;SDS011;30157;55.512;37.764;2022-08-25T07:11:12;12.07;;;6.70;;
44197;SDS011;30157;55.512;37.764;2022-08-25T07:13:39;9.98;;;5.85;;
44197;SDS011;30157;55.512;37.764;2022-08-25T07:16:06;8.95;;;6.00;;
44197;SDS011;30157;55.512;37.764;2022-08-25T07:18:33;7.43;;;5.28;;
44197;SDS011;30157;55.512;37.764;2022-08-25T07:20:59;7.53;;;4.80;;
44197;SDS011;30157;55.512;37.764;2022-08-25T07:23:25;8.30;;;5.55;;
44197;SDS011;30157;55.512;37.764;2022-08-25T07:25:52;8.40;;;5.38;;
44197;SDS011;30157;55.512;37.764;2022-08-25T07:28:19;11.27;;;5.60;;
44197;SDS011;30157;55.512;37.764;2022-08-25T07:30:46;9.57;;;5.38;;
44197;SDS011;30157;55.512;37.764;2022-08-25T07:33:13;7.28;;;5.10;;
44197;SDS011;30157;55.512;37.764;2022-08-25T07:35:39;8.85;;;5.53;;
44197;SDS011;30157;55.512;37.764;2022-08-25T07:38:06;8.90;;;5.47;;
44197;SDS011;30157;55.512;37.764;2022-08-25T07:40:33;10.18;;;5.28;;
44197;SDS011;30157;55.512;37.764;2022-08-25T07:43:03;5.78;;;4.82;;
44197;SDS011;30157;55.512;37.764;2022-08-25T07:45:33;6.78;;;4.57;;
44197;SDS011;30157;55.512;37.764;2022-08-25T07:48:01;8.27;;;4.72;;
44197;SDS011;30157;55.512;37.764;2022-08-25T07:50:29;7.80;;;4.95;;
44197;SDS011;30157;55.512;37.764;2022-08-25T07:52:56;5.13;;;4.63;;
44197;SDS011;30157;55.512;37.764;2022-08-25T07:55:23;6.45;;;5.05;;
44197;SDS011;30157;55.512;37.764;2022-08-25T07:57:51;5.47;;;4.82;;
44197;SDS011;30157;55.512;37.764;2022-08-25T08:00:18;6.85;;;4.43;;
44197;SDS011;30157;55.512;37.764;2022-08-25T08:02:43;5.03;;;4.50;;
44197;SDS011;30157;55.512;37.764;2022-08-25T08:05:10;5.43;;;4.88;;
44197;SDS011;30157;55.512;37.764;2022-08-25T08:07:37;5.03;;;4.22;;
44197;SDS011;30157;55.512;37.764;2022-08-25T08:10:04;6.43;;;4.78;;
44197;SDS011;30157;55.512;37.764;2022-08-25T08:12:31;6.70;;;4.50;;
44197;SDS011;30157;55.512;37.764;2022-08-25T08:15:07;6.47;;;5.05;;
44197;SDS011;30157;55.512;37.764;2022-08-25T08:17:36;7.00;;;4.97;;
44197;SDS011;30157;55.512;37.764;2022-08-25T08:20:03;8.57;;;5.07;;
44197;SDS011;30157;55.512;37.764;2022-08-25T08:22:37;6.75;;;4.78;;
44197;SDS011;30157;55.512;37.764;2022-08-25T08:25:05;7.60;;;4.93;;
44197;SDS011;30157;55.512;37.764;2022-08-25T08:27:40;8.20;;;5.05;;
44197;SDS011;30157;55.512;37.764;2022-08-25T08:30:07;7.97;;;4.90;;
44197;SDS011;30157;55.512;37.764;2022-08-25T08:32:33;8.55;;;4.53;;
44197;SDS011;30157;55.512;37.764;2022-08-25T08:34:59;6.30;;;4.80;;
44197;SDS011;30157;55.512;37.764;2022-08-25T08:37:25;6.57;;;5.05;;
44197;SDS011;30157;55.512;37.764;2022-08-25T08:39:50;7.32;;;4.90;;
44197;SDS011;30157;55.512;37.764;2022-08-25T08:45:39;6.78;;;4.90;;
44197;SDS011;30157;55.512;37.764;2022-08-25T08:56:05;7.25;;;4.82;;
44197;SDS011;30157;55.512;37.764;2022-08-25T09:01:25;6.40;;;4.50;;
44197;SDS011;30157;55.512;37.764;2022-08-25T09:04:44;6.70;;;4.47;;
44197;SDS011;30157;55.512;37.764;2022-08-25T09:06:51;5.95;;;4.80;;
44197;SDS011;30157;55.512;37.764;2022-08-25T09:09:27;4.35;;;3.88;;
44197;SDS011;30157;55.512;37.764;2022-08-25T09:18:25;4.82;;;4.40;;
44197;SDS011;30157;55.512;37.764;2022-08-25T09:30:03;4.97;;;4.43;;
44197;SDS011;30157;55.512;37.764;2022-08-25T09:32:40;6.75;;;4.68;;
44197;SDS011;30157;55.512;37.764;2022-08-25T09:35:19;4.80;;;4.40;;
44197;SDS011;30157;55.512;37.764;2022-08-25T09:38:04;7.85;;;4.95;;
44197;SDS011;30157;55.512;37.764;2022-08-25T09:43:00;4.75;;;4.35;;
44197;SDS011;30157;55.512;37.764;2022-08-25T09:45:31;6.22;;;4.60;;
44197;SDS011;30157;55.512;37.764;2022-08-25T09:48:18;5.53;;;4.43;;
44197;SDS011;30157;55.512;37.764;2022-08-25T09:50:46;4.75;;;4.35;;
44197;SDS011;30157;55.512;37.764;2022-08-25T09:53:13;4.68;;;4.15;;
44197;SDS011;30157;55.512;37.764;2022-08-25T09:55:42;4.82;;;4.32;;
44197;SDS011;30157;55.512;37.764;2022-08-25T09:58:13;5.43;;;4.50;;
44197;SDS011;30157;55.512;37.764;2022-08-25T10:00:42;4.35;;;3.95;;
44197;SDS011;30157;55.512;37.764;2022-08-25T10:11:34;6.55;;;4.82;;
44197;SDS011;30157;55.512;37.764;2022-08-25T10:14:05;6.70;;;4.93;;
44197;SDS011;30157;55.512;37.764;2022-08-25T10:16:49;5.88;;;4.80;;
44197;SDS011;30157;55.512;37.764;2022-08-25T10:19:25;6.65;;;5.25;;
44197;SDS011;30157;55.512;37.764;2022-08-25T10:22:04;5.93;;;4.57;;
44197;SDS011;30157;55.512;37.764;2022-08-25T10:24:35;5.03;;;4.28;;
44197;SDS011;30157;55.512;37.764;2022-08-25T10:27:48;5.30;;;4.80;;
44197;SDS011;30157;55.512;37.764;2022-08-25T10:40:53;5.60;;;5.00;;
44197;SDS011;30157;55.512;37.764;2022-08-25T10:43:32;5.30;;;4.70;;
44197;SDS011;30157;55.512;37.764;2022-08-25T10:51:31;5.15;;;4.22;;
44197;SDS011;30157;55.512;37.764;2022-08-25T10:56:57;5.28;;;4.78;;
44197;SDS011;30157;55.512;37.764;2022-08-25T11:05:04;5.78;;;5.20;;
44197;SDS011;30157;55.512;37.764;2022-08-25T11:08:04;6.77;;;4.70;;
44197;SDS011;30157;55.512;37.764;2022-08-25T11:13:07;5.43;;;4.72;;
44197;SDS011;30157;55.512;37.764;2022-08-25T11:15:51;6.93;;;4.65;;
44197;SDS011;30157;55.512;37.764;2022-08-25T11:18:20;5.30;;;4.80;;
44197;SDS011;30157;55.512;37.764;2022-08-25T11:21:21;7.13;;;5.53;;
44197;SDS011;30157;55.512;37.764;2022-08-25T11:23:49;5.53;;;4.60;;
44197;SDS011;30157;55.512;37.764;2022-08-25T11:31:35;5.88;;;5.25;;
44197;SDS011;30157;55.512;37.764;2022-08-25T11:34:03;7.22;;;4.90;;
44197;SDS011;30157;55.512;37.764;2022-08-25T11:36:35;5.72;;;5.07;;
44197;SDS011;30157;55.512;37.764;2022-08-25T11:39:09;7.53;;;5.20;;
44197;SDS011;30157;55.512;37.764;2022-08-25T11:41:39;10.30;;;5.13;;
44197;SDS011;30157;55.512;37.764;2022-08-25T11:47:22;7.00;;;6.30;;
44197;SDS011;30157;55.512;37.764;2022-08-25T11:50:05;5.53;;;4.88;;
44197;SDS011;30157;55.512;37.764;2022-08-25T11:52:38;5.38;;;4.85;;
44197;SDS011;30157;55.512;37.764;2022-08-25T11:55:19;5.40;;;4.90;;
44197;SDS011;30157;55.512;37.764;2022-08-25T11:57:51;5.15;;;4.63;;
44197;SDS011;30157;55.512;37.764;2022-08-25T12:00:43;7.30;;;5.00;;
44197;SDS011;30157;55.512;37.764;2022-08-25T12:14:13;6.10;;;5.50;;
44197;SDS011;30157;55.512;37.764;2022-08-25T12:19:24;11.38;;;5.68;;
44197;SDS011;30157;55.512;37.764;2022-08-25T12:27:11;6.13;;;4.80;;
44197;SDS011;30157;55.512;37.764;2022-08-25T12:41:06;6.13;;;5.40;;
44197;SDS011;30157;55.512;37.764;2022-08-25T12:43:36;6.20;;;5.40;;
44197;SDS011;30157;55.512;37.764;2022-08-25T12:48:58;6.22;;;5.28;;
44197;SDS011;30157;55.512;37.764;2022-08-25T12:51:27;6.07;;;5.22;;
44197;SDS011;30157;55.512;37.764;2022-08-25T12:54:19;5.97;;;5.38;;
44197;SDS011;30157;55.512;37.764;2022-08-25T12:56:56;5.68;;;5.07;;
44197;SDS011;30157;55.512;37.764;2022-08-25T12:59:31;6.68;;;5.45;;
44197;SDS011;30157;55.512;37.764;2022-08-25T13:02:21;6.40;;;5.15;;
44197;SDS011;30157;55.512;37.764;2022-08-25T13:08:05;6.38;;;5.10;;
44197;SDS011;30157;55.512;37.764;2022-08-25T13:10:57;6.22;;;5.63;;
44197;SDS011;30157;55.512;37.764;2022-08-25T13:16:23;7.35;;;5.03;;
44197;SDS011;30157;55.512;37.764;2022-08-25T13:18:53;6.53;;;4.97;;
44197;SDS011;30157;55.512;37.764;2022-08-25T13:26:26;8.52;;;5.90;;
44197;SDS011;30157;55.512;37.764;2022-08-25T13:29:00;7.60;;;5.90;;
44197;SDS011;30157;55.512;37.764;2022-08-25T13:31:37;6.28;;;5.63;;
44197;SDS011;30157;55.512;37.764;2022-08-25T13:34:21;9.18;;;5.88;;
44197;SDS011;30157;55.512;37.764;2022-08-25T13:36:51;6.30;;;5.55;;
44197;SDS011;30157;55.512;37.764;2022-08-25T13:39:36;7.28;;;5.00;;
44197;SDS011;30157;55.512;37.764;2022-08-25T13:42:04;6.32;;;5.72;;
44197;SDS011;30157;55.512;37.764;2022-08-25T13:44:36;7.60;;;6.40;;
44197;SDS011;30157;55.512;37.764;2022-08-25T13:47:07;8.23;;;5.60;;
44197;SDS011;30157;55.512;37.764;2022-08-25T13:49:33;6.57;;;5.88;;
44197;SDS011;30157;55.512;37.764;2022-08-25T13:51:59;6.07;;;5.43;;
44197;SDS011;30157;55.512;37.764;2022-08-25T13:54:36;9.13;;;6.25;;
44197;SDS011;30157;55.512;37.764;2022-08-25T13:57:06;6.38;;;5.65;;
44197;SDS011;30157;55.512;37.764;2022-08-25T13:59:42;8.05;;;5.85;;
44197;SDS011;30157;55.512;37.764;2022-08-25T14:02:11;6.45;;;5.63;;
44197;SDS011;30157;55.512;37.764;2022-08-25T14:12:34;9.20;;;5.68;;
44197;SDS011;30157;55.512;37.764;2022-08-25T14:20:51;8.10;;;6.00;;
44197;SDS011;30157;55.512;37.764;2022-08-25T14:23:19;6.60;;;5.68;;
44197;SDS011;30157;55.512;37.764;2022-08-25T14:25:49;8.85;;;5.90;;
44197;SDS011;30157;55.512;37.764;2022-08-25T14:28:17;6.60;;;5.90;;
44197;SDS011;30157;55.512;37.764;2022-08-25T14:30:46;6.15;;;5.55;;
44197;SDS011;30157;55.512;37.764;2022-08-25T14:33:15;8.85;;;6.00;;
44197;SDS011;30157;55.512;37.764;2022-08-25T14:35:45;6.30;;;5.70;;
44197;SDS011;30157;55.512;37.764;2022-08-25T14:38:13;6.65;;;5.93;;
44197;SDS011;30157;55.512;37.764;2022-08-25T14:40:39;6.80;;;6.10;;
44197;SDS011;30157;55.512;37.764;2022-08-25T14:43:08;11.32;;;6.30;;
44197;SDS011;30157;55.512;37.764;2022-08-25T14:45:39;6.68;;;5.55;;
44197;SDS011;30157;55.512;37.764;2022-08-25T14:48:07;8.05;;;6.22;;
44197;SDS011;30157;55.512;37.764;2022-08-25T14:50:37;6.78;;;6.10;;
44197;SDS011;30157;55.512;37.764;2022-08-25T14:53:03;7.93;;;7.07;;
44197;SDS011;30157;55.512;37.764;2022-08-25T14:55:29;6.43;;;5.80;;
44197;SDS011;30157;55.512;37.764;2022-08-25T14:57:55;7.63;;;5.97;;
44197;SDS011;30157;55.512;37.764;2022-08-25T15:00:21;6.40;;;5.80;;
44197;SDS011;30157;55.512;37.764;2022-08-25T15:02:48;9.27;;;6.50;;
44197;SDS011;30157;55.512;37.764;2022-08-25T15:05:16;7.45;;;5.85;;
44197;SDS011;30157;55.512;37.764;2022-08-25T15:07:49;7.82;;;6.47;;
44197;SDS011;30157;55.512;37.764;2022-08-25T15:10:34;6.95;;;6.25;;
44197;SDS011;30157;55.512;37.764;2022-08-25T15:13:00;8.02;;;6.22;;
44197;SDS011;30157;55.512;37.764;2022-08-25T15:15:26;8.65;;;7.80;;
44197;SDS011;30157;55.512;37.764;2022-08-25T15:17:52;9.15;;;7.90;;
44197;SDS011;30157;55.512;37.764;2022-08-25T15:20:19;9.55;;;6.38;;
44197;SDS011;30157;55.512;37.764;2022-08-25T15:22:45;9.30;;;6.82;;
44197;SDS011;30157;55.512;37.764;2022-08-25T15:25:12;7.45;;;6.63;;
44197;SDS011;30157;55.512;37.764;2022-08-25T15:27:38;6.43;;;5.80;;
44197;SDS011;30157;55.512;37.764;2022-08-25T15:30:05;7.25;;;6.55;;
44197;SDS011;30157;55.512;37.764;2022-08-25T15:32:31;8.93;;;6.40;;
44197;SDS011;30157;55.512;37.764;2022-08-25T15:34:57;7.60;;;6.78;;
44197;SDS011;30157;55.512;37.764;2022-08-25T15:37:24;7.43;;;6.70;;
44197;SDS011;30157;55.512;37.764;2022-08-25T15:39:50;8.35;;;6.80;;
44197;SDS011;30157;55.512;37.764;2022-08-25T15:42:16;7.28;;;6.53;;
44197;SDS011;30157;55.512;37.764;2022-08-25T15:44:44;7.18;;;6.55;;
44197;SDS011;30157;55.512;37.764;2022-08-25T15:47:10;7.22;;;6.47;;
44197;SDS011;30157;55.512;37.764;2022-08-25T15:49:35;7.82;;;7.03;;
44197;SDS011;30157;55.512;37.764;2022-08-25T15:52:01;7.10;;;6.40;;
44197;SDS011;30157;55.512;37.764;2022-08-25T15:54:28;8.85;;;7.07;;
44197;SDS011;30157;55.512;37.764;2022-08-25T15:56:54;7.72;;;7.03;;
44197;SDS011;30157;55.512;37.764;2022-08-25T15:59:21;7.70;;;6.75;;
44197;SDS011;30157;55.512;37.764;2022-08-25T16:01:47;7.93;;;7.13;;
44197;SDS011;30157;55.512;37.764;2022-08-25T16:04:21;10.40;;;7.22;;
44197;SDS011;30157;55.512;37.764;2022-08-25T16:06:57;7.97;;;6.88;;
44197;SDS011;30157;55.512;37.764;2022-08-25T16:09:25;7.90;;;7.10;;
44197;SDS011;30157;55.512;37.764;2022-08-25T16:11:50;8.32;;;7.22;;
44197;SDS011;30157;55.512;37.764;2022-08-25T16:14:17;8.02;;;7.20;;
44197;SDS011;30157;55.512;37.764;2022-08-25T16:16:42;8.85;;;7.50;;
44197;SDS011;30157;55.512;37.764;2022-08-25T16:19:08;8.32;;;7.43;;
44197;SDS011;30157;55.512;37.764;2022-08-25T16:21:34;8.85;;;7.32;;
44197;SDS011;30157;55.512;37.764;2022-08-25T16:24:03;9.60;;;7.80;;
44197;SDS011;30157;55.512;37.764;2022-08-25T16:26:31;8.60;;;7.70;;
44197;SDS011;30157;55.512;37.764;2022-08-25T16:28:57;8.80;;;7.57;;
44197;SDS011;30157;55.512;37.764;2022-08-25T16:31:23;9.65;;;7.68;;
44197;SDS011;30157;55.512;37.764;2022-08-25T16:33:50;8.80;;;7.90;;
44197;SDS011;30157;55.512;37.764;2022-08-25T16:36:17;9.20;;;7.68;;
44197;SDS011;30157;55.512;37.764;2022-08-25T16:38:45;9.63;;;8.18;;
44197;SDS011;30157;55.512;37.764;2022-08-25T16:41:13;8.57;;;7.68;;
44197;SDS011;30157;55.512;37.764;2022-08-25T16:43:41;10.07;;;7.90;;
44197;SDS011;30157;55.512;37.764;2022-08-25T16:46:09;9.43;;;8.50;;
44197;SDS011;30157;55.512;37.764;2022-08-25T16:48:36;9.65;;;8.40;;
44197;SDS011;30157;55.512;37.764;2022-08-25T16:51:06;8.55;;;7.65;;
44197;SDS011;30157;55.512;37.764;2022-08-25T16:53:43;9.00;;;8.10;;
44197;SDS011;30157;55.512;37.764;2022-08-25T16:56:28;11.27;;;8.13;;
44197;SDS011;30157;55.512;37.764;2022-08-25T16:58:54;12.20;;;9.15;;
44197;SDS011;30157;55.512;37.764;2022-08-25T17:01:24;11.93;;;8.45;;
44197;SDS011;30157;55.512;37.764;2022-08-25T17:03:51;13.10;;;8.10;;
44197;SDS011;30157;55.512;37.764;2022-08-25T17:06:19;11.68;;;9.05;;